YSWG/WGA METAR and TAF weather

Enter ICAO airport designator
Station Type Date Time Source
YSWG METAR 2022/01/27 23:00 UTC NOAA

YSWG 272300Z AUTO 01009KT 9999 // SCT041 BKN048 BKN057 27/19 Q1014


Station Type Date Time Source
YSWG Decoded METAR 2022/01/27 23:00 UTC NOAA

Wagga Airport, Australia (YSWG) 35-09S 147-27E 213M
Jan 27, 2022 - 06:00 PM EST / 2022.01.27 2300 UTC
Wind: from the N (010 degrees) at 10 MPH (9 KT):0
Visibility: greater than 7 mile(s):0
Sky conditions: mostly cloudy
Temperature: 80 F (27 C)
Dew Point: 66 F (19 C)
Relative Humidity: 61%
Pressure (altimeter): 29.94 in. Hg (1014 hPa)
ob: YSWG 272300Z AUTO 01009KT 9999 // SCT041 BKN048 BKN057 27/19 Q1014
cycle: 23

Station Type Date Time Source
YSWG TAF 2018/05/25 18:03 UTC NOAA

TAF YSWG 251649Z 2518/2608 07008KT CAVOK

Example: see airport list